This is the latest recevied weather packets stored in our database for station/object KD9WYV. If no packets are shown the sender has not sent any weather packets the latest 1 day(s).
| Time | Temp. | Humidity | Pressure | Rain* | Wind** | Luminosity | Snow |
|---|---|---|---|---|---|---|---|
| 1778107713 | 14.44° C | 44% | 1014.4 hPa | 0 mm | - | 211 W/m² | - |
| 1778106801 | 14.44° C | 44% | 1014.5 hPa | 0 mm | - | 269 W/m² | - |
| 1778106194 | 14.44° C | 44% | 1014.7 hPa | 0 mm | - | 307 W/m² | - |
| 1778105893 | 15° C | 42% | 1014.5 hPa | 0 mm | - | 349 W/m² | - |
| 1778105590 | 14.44° C | 44% | 1014.6 hPa | 0 mm | - | 399 W/m² | - |
| 1778104375 | 15° C | 47% | 1014.9 hPa | 0 mm | - | 409 W/m² | - |
| 1778100734 | 13.89° C | 48% | 1014.1 hPa | 0 mm | - | 296 W/m² | - |
| 1778100432 | 13.33° C | 50% | 1014.2 hPa | 0 mm | - | 340 W/m² | - |
| 1778100129 | 13.33° C | 49% | 1014.1 hPa | 0 mm | - | 242 W/m² | - |
| 1778099222 | 13.89° C | 49% | 1014.3 hPa | 0 mm | - | 262 W/m² | - |
| 1778096491 | 13.89° C | 42% | 1014.5 hPa | 0 mm | - | 315 W/m² | - |
| 1778091944 | 13.89° C | 47% | 1014.2 hPa | 0 mm | - | 430 W/m² | - |
| 1778089216 | 13.33° C | 48% | 1014.6 hPa | 0 mm | - | 262 W/m² | - |
| 1778088914 | 13.33° C | 47% | 1014.6 hPa | 0 mm | - | 262 W/m² | - |
| 1778088004 | 13.33° C | 47% | 1014.5 hPa | 0 mm | - | 216 W/m² | - |
| 1778087096 | 13.33° C | 48% | 1014.5 hPa | 0 mm | - | 284 W/m² | - |
| 1778085885 | 14.44° C | 49% | 1014.5 hPa | 0 mm | - | 340 W/m² | - |
| 1778085583 | 14.44° C | 49% | 1014.6 hPa | 0 mm | - | 355 W/m² | - |
| 1778085278 | 14.44° C | 49% | 1014.4 hPa | 0 mm | - | 569 W/m² | - |
| 1778084973 | 13.89° C | 51% | 1014.3 hPa | 0 mm | - | 468 W/m² | - |
| 1778084671 | 15.56° C | 47% | 1014.4 hPa | 0 mm | - | 363 W/m² | - |
| 1778079920 | 13.89° C | 56% | 1014.3 hPa | 0 mm | - | 1132 W/m² | - |
| 1778079314 | 12.22° C | 59% | 1014.4 hPa | 0 mm | - | 971 W/m² | - |
| 1778078708 | 12.22° C | 60% | 1014 hPa | 0 mm | - | 998 W/m² | - |
| 1778077196 | 12.22° C | 65% | 1013.9 hPa | 0 mm | - | 399 W/m² | - |
* Rain latest hour (hover to see other rain measurements)
** Current wind speed in m/s (hover to see current wind gust speed)